Relevés horaires Pilatus (Suisse)


Relevés horaires à Pilatus - Mardi 30 Mai 2006
Heure UTC1 Température [°C] Vent [km/h] Hum. [%] Pres.4 [hPa] Visi. [Km] Nébu. [octa] Préc.5 [mm] Cond.
2m. Res. Ros. Dir.2 Vit. Moy. Raf.3
23:00 -5.1 -10.7 -5.1 O 14.8 24.1 35.2 100 850(-0.1/3h) -- -- -- --
22:00 -5.5 -12.6 -5.5 O 22.2 22.2 37.0 100 850(0.2/3h) -- -- -- --
21:00 -5.3 -12 -5.5 ONO 20.4 37.0 61.1 98 850(0.5/3h) -- -- -- --
20:00 -4.8 -10.7 -4.8 ONO 16.7 24.1 48.2 100 850(0.5/3h) -- -- -- --
19:00 -5.1 -11.7 -5.1 ONO 20.4 22.2 48.2 100 850(0.6/3h) -- -- -- --
18:00 -4.6 -9.6 -4.6 O 13.0 37.0 61.1 100 850(0.5/3h) -- -- 15/12h
--
17:00 -4.6 -10 -4.6 ONO 14.8 37.0 61.1 100 850(0.4/3h) -- -- -- --
16:00 -4.6 -12.2 -4.6 ONO 27.8 27.8 50.0 100 850(0.3/3h) -- -- -- --
15:00 -4.3 -11 -4.7 ONO 22.2 31.5 55.6 97 850(0.2/3h) -- -- -- --
14:00 -5.3 -13.6 -5.6 ONO 31.5 31.5 55.6 98 850(0.4/3h) -- -- -- --
13:00 -4.9 -11.2 -5.4 ONO 18.5 -- -- 96 850 -- -- -- --
12:00 -4.6 -11.1 -5.3 ONO 20.4 -- -- 95 850 -- -- -- --
11:00 -5.0 -11.6 -6.0 ONO 20.4 24.1 44.4 93 850(0.9/3h) -- -- -- --
10:00 -5.1 -10.7 -5.2 NO 14.8 24.1 50.0 99 850(0.6/3h) -- -- -- --
09:00 -5.7 -12.8 -5.7 ONO 22.2 22.2 50.0 100 850(0.3/3h) -- -- -- --
08:00 -5.2 -12.2 -5.5 ONO 22.2 22.2 50.0 98 850(-0.1/3h) -- -- -- --
07:00 -5.1 -12 -5.2 ONO 22.2 22.2 40.7 99 850(0.3/3h) -- -- -- --
06:00 -5.2 -11.2 -5.2 O 16.7 25.9 61.1 100 850(0.0/3h) -- -- 17/12h
--
05:00 -5.1 -10.2 -5.1 O 13.0 16.7 44.4 100 850(0.1/3h) -- -- -- --
04:00 -4.6 -9.1 -4.6 S 11.1 20.4 40.7 100 850(0.0/3h) -- -- -- --
03:00 -4.6 -10.4 -4.6 SSO 16.7 25.9 61.1 100 850(-0.4/3h) -- -- -- --
02:00 -3.8 -10.1 -3.8 NO 20.4 25.9 61.1 100 850(-0.9/3h) -- -- -- --
01:00 -3.9 -10.5 -3.9 ONO 22.2 25.9 61.1 100 850(-1.4/3h) -- -- -- --
00:00 -2.6 -8 -2.6 SO 16.7 27.8 77.8 100 850(-1.3/3h) -- -- 5/6h
--

1 Coordinated Universal Time. Actuellement il est 02:00 locale et 00:00 UTC.

2 Le vent souffle depuis la direction indiquée vers la direction oposée.

3 Les rafales max. sont disponible 40 min après l'heure du relevé.

4 Pour les stations d'altitude (plus de 600m) le géopotentiel du niveau le plus proche de la pression obligatoire est indiqué.

5 Les stations disposant d'un diffuseur peuvent indiquer "trace". Cela signifie que des précipitations ont touchés le sol mais que la quantité est inférieure à 0.1 mm.

Copyright

Les données affichées sur cette page sont la propriété exclusive de Météo Suisse.

Récapitulatif de la journée
Température [°C] Vent [km/h] Ensoleillement4 [h] Precipitations totale5 [mm] Pression [Hpa]
Min1 Max.2 Moy.3 Max. Min Max.
-5.2 -4.1 26.3 77.8 0 h 0 min 33 850.0 850.0

1 Température minimale relevée entre 18:00 UTC la veille et 18:00 UTC le jour donné.

2 Température maximale relevée entre 06:00 UTC le jour donné et 06:00 UTC le lendemain.

3 Vent moyen de la journée basé sur les relevés horaires.

4 Ensoleillement en heures relevé entre 06:00 UTC la veille et 06:00 UTC le jour donné.

5 Précipitations totales tombées entre 06:00 UTC la jour donné et 06:00 UTC le lendemain.

Graphiques horaires